sensor_id;sensor_type;location;lat;lon;timestamp;pressure;altitude;pressure_sealevel;temperature;humidity
47983;BME280;33751;50.816;-1.214;2023-04-25T00:01:38;101421.64;;;23.91;100.00
47983;BME280;33751;50.816;-1.214;2023-04-25T00:04:07;101425.63;;;23.99;100.00
47983;BME280;33751;50.816;-1.214;2023-04-25T00:06:34;101425.78;;;24.13;100.00
47983;BME280;33751;50.816;-1.214;2023-04-25T00:09:02;101425.38;;;24.12;100.00
47983;BME280;33751;50.816;-1.214;2023-04-25T00:11:29;101420.99;;;23.95;100.00
47983;BME280;33751;50.816;-1.214;2023-04-25T00:13:56;101414.60;;;24.12;100.00
47983;BME280;33751;50.816;-1.214;2023-04-25T00:16:22;101416.26;;;23.97;100.00
47983;BME280;33751;50.816;-1.214;2023-04-25T00:18:49;101418.06;;;24.08;100.00
47983;BME280;33751;50.816;-1.214;2023-04-25T00:21:15;101420.23;;;24.08;100.00
47983;BME280;33751;50.816;-1.214;2023-04-25T00:23:42;101424.61;;;23.84;100.00
47983;BME280;33751;50.816;-1.214;2023-04-25T00:26:08;101424.78;;;24.08;100.00
47983;BME280;33751;50.816;-1.214;2023-04-25T00:28:35;101420.80;;;24.05;100.00
47983;BME280;33751;50.816;-1.214;2023-04-25T00:31:01;101424.45;;;24.31;100.00
47983;BME280;33751;50.816;-1.214;2023-04-25T00:33:28;101427.11;;;23.98;100.00
47983;BME280;33751;50.816;-1.214;2023-04-25T00:35:56;101434.13;;;24.19;100.00
47983;BME280;33751;50.816;-1.214;2023-04-25T00:38:23;101435.59;;;23.46;100.00
47983;BME280;33751;50.816;-1.214;2023-04-25T00:40:49;101432.40;;;23.93;100.00
47983;BME280;33751;50.816;-1.214;2023-04-25T00:43:16;101433.56;;;24.14;100.00
47983;BME280;33751;50.816;-1.214;2023-04-25T00:45:43;101433.50;;;23.94;100.00
47983;BME280;33751;50.816;-1.214;2023-04-25T00:48:14;101432.56;;;23.94;100.00
47983;BME280;33751;50.816;-1.214;2023-04-25T00:50:51;101436.70;;;23.91;100.00
47983;BME280;33751;50.816;-1.214;2023-04-25T00:53:18;101438.48;;;23.96;100.00
47983;BME280;33751;50.816;-1.214;2023-04-25T00:55:45;101438.42;;;23.88;100.00
47983;BME280;33751;50.816;-1.214;2023-04-25T00:58:12;101439.59;;;23.81;100.00
47983;BME280;33751;50.816;-1.214;2023-04-25T01:00:40;101441.65;;;23.80;100.00
47983;BME280;33751;50.816;-1.214;2023-04-25T01:03:07;101446.93;;;23.54;100.00
47983;BME280;33751;50.816;-1.214;2023-04-25T01:05:34;101446.45;;;24.13;100.00
47983;BME280;33751;50.816;-1.214;2023-04-25T01:08:01;101455.99;;;24.09;100.00
47983;BME280;33751;50.816;-1.214;2023-04-25T01:10:27;101460.90;;;24.13;100.00
47983;BME280;33751;50.816;-1.214;2023-04-25T01:12:54;101465.98;;;24.10;100.00
47983;BME280;33751;50.816;-1.214;2023-04-25T01:15:21;101472.48;;;23.69;100.00
47983;BME280;33751;50.816;-1.214;2023-04-25T01:17:49;101479.67;;;23.71;100.00
47983;BME280;33751;50.816;-1.214;2023-04-25T01:20:16;101485.70;;;23.69;100.00
47983;BME280;33751;50.816;-1.214;2023-04-25T01:22:43;101493.56;;;24.19;100.00
47983;BME280;33751;50.816;-1.214;2023-04-25T01:25:10;101493.77;;;23.63;100.00
47983;BME280;33751;50.816;-1.214;2023-04-25T01:27:37;101494.09;;;23.42;100.00
47983;BME280;33751;50.816;-1.214;2023-04-25T01:30:06;101497.32;;;23.64;100.00
47983;BME280;33751;50.816;-1.214;2023-04-25T01:32:33;101500.36;;;23.39;100.00
47983;BME280;33751;50.816;-1.214;2023-04-25T01:35:00;101504.62;;;23.58;100.00
47983;BME280;33751;50.816;-1.214;2023-04-25T01:37:27;101504.86;;;23.56;100.00
47983;BME280;33751;50.816;-1.214;2023-04-25T01:39:54;101502.08;;;23.86;100.00
47983;BME280;33751;50.816;-1.214;2023-04-25T01:42:22;101501.89;;;23.86;100.00
47983;BME280;33751;50.816;-1.214;2023-04-25T01:44:49;101504.49;;;23.34;100.00
47983;BME280;33751;50.816;-1.214;2023-04-25T01:47:16;101508.37;;;23.52;100.00
47983;BME280;33751;50.816;-1.214;2023-04-25T01:49:43;101510.36;;;24.07;100.00
47983;BME280;33751;50.816;-1.214;2023-04-25T01:52:09;101511.79;;;23.90;100.00
47983;BME280;33751;50.816;-1.214;2023-04-25T01:54:36;101515.38;;;23.75;100.00
47983;BME280;33751;50.816;-1.214;2023-04-25T01:57:03;101520.45;;;23.94;100.00
47983;BME280;33751;50.816;-1.214;2023-04-25T01:59:31;101522.56;;;23.45;100.00
47983;BME280;33751;50.816;-1.214;2023-04-25T02:01:57;101521.93;;;23.88;100.00
47983;BME280;33751;50.816;-1.214;2023-04-25T02:04:24;101524.35;;;23.44;100.00
47983;BME280;33751;50.816;-1.214;2023-04-25T02:06:51;101518.81;;;23.48;100.00
47983;BME280;33751;50.816;-1.214;2023-04-25T02:09:17;101517.28;;;23.49;100.00
47983;BME280;33751;50.816;-1.214;2023-04-25T02:11:44;101512.30;;;23.72;100.00
47983;BME280;33751;50.816;-1.214;2023-04-25T02:14:11;101507.95;;;23.27;100.00
47983;BME280;33751;50.816;-1.214;2023-04-25T02:16:38;101505.06;;;23.53;100.00
47983;BME280;33751;50.816;-1.214;2023-04-25T02:19:04;101506.94;;;23.24;100.00
47983;BME280;33751;50.816;-1.214;2023-04-25T02:21:31;101508.81;;;23.15;100.00
47983;BME280;33751;50.816;-1.214;2023-04-25T02:23:58;101510.53;;;23.48;100.00
47983;BME280;33751;50.816;-1.214;2023-04-25T02:26:25;101512.22;;;23.14;100.00
47983;BME280;33751;50.816;-1.214;2023-04-25T02:28:51;101517.00;;;23.58;100.00
47983;BME280;33751;50.816;-1.214;2023-04-25T02:31:18;101518.33;;;23.37;100.00
47983;BME280;33751;50.816;-1.214;2023-04-25T02:33:44;101521.21;;;23.30;100.00
47983;BME280;33751;50.816;-1.214;2023-04-25T02:36:11;101522.40;;;23.53;100.00
47983;BME280;33751;50.816;-1.214;2023-04-25T02:38:38;101522.36;;;23.02;100.00
47983;BME280;33751;50.816;-1.214;2023-04-25T02:41:05;101521.36;;;23.50;100.00
47983;BME280;33751;50.816;-1.214;2023-04-25T02:43:31;101526.64;;;23.51;100.00
47983;BME280;33751;50.816;-1.214;2023-04-25T02:45:59;101528.90;;;23.28;100.00
47983;BME280;33751;50.816;-1.214;2023-04-25T02:48:25;101532.11;;;23.17;100.00
47983;BME280;33751;50.816;-1.214;2023-04-25T02:50:52;101536.09;;;23.19;100.00
47983;BME280;33751;50.816;-1.214;2023-04-25T02:53:18;101538.60;;;22.94;100.00
47983;BME280;33751;50.816;-1.214;2023-04-25T02:55:45;101546.39;;;23.40;100.00
47983;BME280;33751;50.816;-1.214;2023-04-25T02:58:11;101552.94;;;23.11;100.00
47983;BME280;33751;50.816;-1.214;2023-04-25T03:00:38;101554.46;;;22.77;100.00
47983;BME280;33751;50.816;-1.214;2023-04-25T03:03:04;101559.37;;;23.31;100.00
47983;BME280;33751;50.816;-1.214;2023-04-25T03:05:31;101561.95;;;23.37;100.00
47983;BME280;33751;50.816;-1.214;2023-04-25T03:07:58;101569.78;;;23.16;100.00
47983;BME280;33751;50.816;-1.214;2023-04-25T03:10:25;101571.05;;;22.66;100.00
47983;BME280;33751;50.816;-1.214;2023-04-25T03:12:51;101573.13;;;22.96;100.00
47983;BME280;33751;50.816;-1.214;2023-04-25T03:15:18;101575.61;;;23.01;100.00
47983;BME280;33751;50.816;-1.214;2023-04-25T03:17:45;101577.71;;;23.05;100.00
47983;BME280;33751;50.816;-1.214;2023-04-25T03:20:12;101580.79;;;23.21;100.00
47983;BME280;33751;50.816;-1.214;2023-04-25T03:22:39;101579.12;;;22.93;100.00
47983;BME280;33751;50.816;-1.214;2023-04-25T03:25:06;101585.34;;;23.17;100.00
47983;BME280;33751;50.816;-1.214;2023-04-25T03:27:33;101585.99;;;22.86;100.00
47983;BME280;33751;50.816;-1.214;2023-04-25T03:30:00;101586.53;;;23.05;100.00
47983;BME280;33751;50.816;-1.214;2023-04-25T03:32:28;101588.70;;;22.81;100.00
47983;BME280;33751;50.816;-1.214;2023-04-25T03:34:55;101593.45;;;22.82;100.00
47983;BME280;33751;50.816;-1.214;2023-04-25T03:37:22;101600.78;;;23.03;100.00
47983;BME280;33751;50.816;-1.214;2023-04-25T03:39:49;101602.75;;;22.67;100.00
47983;BME280;33751;50.816;-1.214;2023-04-25T03:42:16;101605.83;;;22.91;100.00
47983;BME280;33751;50.816;-1.214;2023-04-25T03:44:42;101609.33;;;22.77;100.00
47983;BME280;33751;50.816;-1.214;2023-04-25T03:47:09;101610.15;;;22.80;100.00
47983;BME280;33751;50.816;-1.214;2023-04-25T03:49:36;101613.76;;;22.89;100.00
47983;BME280;33751;50.816;-1.214;2023-04-25T03:52:03;101612.20;;;22.92;100.00
47983;BME280;33751;50.816;-1.214;2023-04-25T03:54:30;101612.64;;;22.96;100.00
47983;BME280;33751;50.816;-1.214;2023-04-25T03:56:57;101609.39;;;22.86;100.00
47983;BME280;33751;50.816;-1.214;2023-04-25T03:59:24;101613.74;;;22.39;100.00
47983;BME280;33751;50.816;-1.214;2023-04-25T04:01:51;101616.33;;;22.82;100.00
47983;BME280;33751;50.816;-1.214;2023-04-25T04:04:18;101615.80;;;22.73;100.00
47983;BME280;33751;50.816;-1.214;2023-04-25T04:06:45;101619.35;;;22.72;100.00
47983;BME280;33751;50.816;-1.214;2023-04-25T04:09:12;101621.04;;;22.48;100.00
47983;BME280;33751;50.816;-1.214;2023-04-25T04:11:38;101620.44;;;22.73;100.00
47983;BME280;33751;50.816;-1.214;2023-04-25T04:14:06;101619.25;;;22.77;100.00
47983;BME280;33751;50.816;-1.214;2023-04-25T04:16:33;101619.40;;;22.35;100.00
47983;BME280;33751;50.816;-1.214;2023-04-25T04:19:00;101622.48;;;22.33;100.00
47983;BME280;33751;50.816;-1.214;2023-04-25T04:21:27;101626.28;;;22.64;100.00
47983;BME280;33751;50.816;-1.214;2023-04-25T04:23:54;101627.37;;;22.72;100.00
47983;BME280;33751;50.816;-1.214;2023-04-25T04:26:21;101631.42;;;22.70;100.00
47983;BME280;33751;50.816;-1.214;2023-04-25T04:28:48;101636.28;;;22.47;100.00
47983;BME280;33751;50.816;-1.214;2023-04-25T04:31:14;101638.90;;;22.58;100.00
47983;BME280;33751;50.816;-1.214;2023-04-25T04:33:41;101642.19;;;22.55;100.00
47983;BME280;33751;50.816;-1.214;2023-04-25T04:36:08;101642.14;;;22.76;100.00
47983;BME280;33751;50.816;-1.214;2023-04-25T04:38:35;101647.14;;;22.45;100.00
47983;BME280;33751;50.816;-1.214;2023-04-25T04:41:01;101649.65;;;22.47;100.00
47983;BME280;33751;50.816;-1.214;2023-04-25T04:43:28;101647.72;;;22.48;100.00
47983;BME280;33751;50.816;-1.214;2023-04-25T04:45:55;101647.45;;;22.52;100.00
47983;BME280;33751;50.816;-1.214;2023-04-25T04:48:22;101645.46;;;22.42;100.00
47983;BME280;33751;50.816;-1.214;2023-04-25T04:50:49;101644.03;;;22.36;100.00
47983;BME280;33751;50.816;-1.214;2023-04-25T04:53:17;101647.18;;;22.93;100.00
47983;BME280;33751;50.816;-1.214;2023-04-25T04:55:44;101654.50;;;22.43;100.00
47983;BME280;33751;50.816;-1.214;2023-04-25T04:58:11;101657.32;;;22.78;100.00
47983;BME280;33751;50.816;-1.214;2023-04-25T05:00:37;101659.29;;;22.58;100.00
47983;BME280;33751;50.816;-1.214;2023-04-25T05:03:04;101659.58;;;22.22;100.00
47983;BME280;33751;50.816;-1.214;2023-04-25T05:05:31;101661.41;;;22.31;100.00
47983;BME280;33751;50.816;-1.214;2023-04-25T05:07:57;101665.13;;;22.94;100.00
47983;BME280;33751;50.816;-1.214;2023-04-25T05:10:25;101668.04;;;22.75;100.00
47983;BME280;33751;50.816;-1.214;2023-04-25T05:12:52;101668.83;;;22.74;100.00
47983;BME280;33751;50.816;-1.214;2023-04-25T05:15:18;101671.05;;;22.75;100.00
47983;BME280;33751;50.816;-1.214;2023-04-25T05:17:45;101677.49;;;23.00;100.00
47983;BME280;33751;50.816;-1.214;2023-04-25T05:20:11;101685.32;;;23.60;100.00
47983;BME280;33751;50.816;-1.214;2023-04-25T05:22:38;101687.34;;;23.67;100.00
47983;BME280;33751;50.816;-1.214;2023-04-25T05:25:05;101685.68;;;23.92;100.00
47983;BME280;33751;50.816;-1.214;2023-04-25T05:27:32;101688.95;;;24.60;100.00
47983;BME280;33751;50.816;-1.214;2023-04-25T05:29:58;101691.64;;;24.18;100.00
47983;BME280;33751;50.816;-1.214;2023-04-25T05:32:26;101695.81;;;23.96;100.00
47983;BME280;33751;50.816;-1.214;2023-04-25T05:34:53;101699.61;;;24.62;100.00
47983;BME280;33751;50.816;-1.214;2023-04-25T05:37:20;101701.11;;;24.85;100.00
47983;BME280;33751;50.816;-1.214;2023-04-25T05:39:47;101705.43;;;25.59;100.00
47983;BME280;33751;50.816;-1.214;2023-04-25T05:42:14;101705.98;;;25.93;100.00
47983;BME280;33751;50.816;-1.214;2023-04-25T05:44:41;101709.80;;;26.46;100.00
47983;BME280;33751;50.816;-1.214;2023-04-25T05:47:08;101710.21;;;27.12;100.00
47983;BME280;33751;50.816;-1.214;2023-04-25T05:49:35;101709.80;;;26.80;100.00
47983;BME280;33751;50.816;-1.214;2023-04-25T05:52:02;101715.76;;;27.35;100.00
47983;BME280;33751;50.816;-1.214;2023-04-25T05:54:28;101713.99;;;27.79;100.00
47983;BME280;33751;50.816;-1.214;2023-04-25T05:56:56;101717.27;;;28.34;100.00
47983;BME280;33751;50.816;-1.214;2023-04-25T05:59:23;101719.72;;;28.38;100.00
47983;BME280;33751;50.816;-1.214;2023-04-25T06:01:50;101720.22;;;28.85;100.00
47983;BME280;33751;50.816;-1.214;2023-04-25T06:04:16;101721.24;;;29.36;100.00
47983;BME280;33751;50.816;-1.214;2023-04-25T06:06:43;101722.96;;;29.35;100.00
47983;BME280;33751;50.816;-1.214;2023-04-25T06:09:09;101724.50;;;30.16;100.00
47983;BME280;33751;50.816;-1.214;2023-04-25T06:11:36;101728.44;;;30.13;100.00
47983;BME280;33751;50.816;-1.214;2023-04-25T06:14:03;101728.58;;;30.86;100.00
47983;BME280;33751;50.816;-1.214;2023-04-25T06:16:29;101733.41;;;30.70;100.00
47983;BME280;33751;50.816;-1.214;2023-04-25T06:18:56;101733.32;;;31.11;100.00
47983;BME280;33751;50.816;-1.214;2023-04-25T06:21:22;101730.56;;;31.08;100.00
47983;BME280;33751;50.816;-1.214;2023-04-25T06:23:49;101729.15;;;31.44;100.00
47983;BME280;33751;50.816;-1.214;2023-04-25T06:26:16;101730.49;;;31.49;100.00
47983;BME280;33751;50.816;-1.214;2023-04-25T06:28:43;101729.36;;;31.76;100.00
47983;BME280;33751;50.816;-1.214;2023-04-25T06:31:09;101731.14;;;32.26;100.00
47983;BME280;33751;50.816;-1.214;2023-04-25T06:33:36;101735.36;;;32.36;100.00
47983;BME280;33751;50.816;-1.214;2023-04-25T06:36:02;101735.46;;;32.47;100.00
47983;BME280;33751;50.816;-1.214;2023-04-25T06:38:30;101743.39;;;32.57;100.00
47983;BME280;33751;50.816;-1.214;2023-04-25T06:40:56;101746.72;;;32.34;100.00
47983;BME280;33751;50.816;-1.214;2023-04-25T06:43:23;101746.68;;;32.26;100.00
47983;BME280;33751;50.816;-1.214;2023-04-25T06:45:50;101751.48;;;32.89;100.00
47983;BME280;33751;50.816;-1.214;2023-04-25T06:48:16;101752.60;;;32.77;100.00
47983;BME280;33751;50.816;-1.214;2023-04-25T06:50:43;101754.40;;;32.63;100.00
47983;BME280;33751;50.816;-1.214;2023-04-25T06:53:10;101756.08;;;32.80;100.00
47983;BME280;33751;50.816;-1.214;2023-04-25T06:55:36;101756.49;;;32.81;100.00
47983;BME280;33751;50.816;-1.214;2023-04-25T06:58:04;101760.45;;;32.36;100.00
47983;BME280;33751;50.816;-1.214;2023-04-25T07:00:30;101758.87;;;32.10;100.00
47983;BME280;33751;50.816;-1.214;2023-04-25T07:02:57;101761.21;;;32.14;100.00
47983;BME280;33751;50.816;-1.214;2023-04-25T07:05:24;101762.52;;;31.01;100.00
47983;BME280;33751;50.816;-1.214;2023-04-25T07:07:50;101763.76;;;31.79;100.00
47983;BME280;33751;50.816;-1.214;2023-04-25T07:10:17;101764.30;;;31.96;100.00
47983;BME280;33751;50.816;-1.214;2023-04-25T07:12:43;101764.37;;;32.08;100.00
47983;BME280;33751;50.816;-1.214;2023-04-25T07:15:10;101761.74;;;32.52;100.00
47983;BME280;33751;50.816;-1.214;2023-04-25T07:17:37;101763.31;;;33.14;100.00
47983;BME280;33751;50.816;-1.214;2023-04-25T07:20:06;101764.36;;;33.41;100.00
47983;BME280;33751;50.816;-1.214;2023-04-25T07:22:33;101763.95;;;33.52;100.00
47983;BME280;33751;50.816;-1.214;2023-04-25T07:25:00;101761.83;;;33.83;100.00
47983;BME280;33751;50.816;-1.214;2023-04-25T07:27:27;101758.66;;;34.00;100.00
47983;BME280;33751;50.816;-1.214;2023-04-25T07:29:54;101763.10;;;34.64;100.00
47983;BME280;33751;50.816;-1.214;2023-04-25T07:32:20;101765.55;;;34.71;100.00
47983;BME280;33751;50.816;-1.214;2023-04-25T07:34:47;101769.87;;;34.85;100.00
47983;BME280;33751;50.816;-1.214;2023-04-25T07:37:13;101766.38;;;34.37;100.00
47983;BME280;33751;50.816;-1.214;2023-04-25T07:39:41;101763.53;;;34.90;100.00
47983;BME280;33751;50.816;-1.214;2023-04-25T07:42:08;101762.51;;;34.84;100.00
47983;BME280;33751;50.816;-1.214;2023-04-25T07:44:34;101760.56;;;34.94;100.00
47983;BME280;33751;50.816;-1.214;2023-04-25T07:47:01;101758.52;;;34.65;100.00
47983;BME280;33751;50.816;-1.214;2023-04-25T07:49:27;101757.30;;;34.96;100.00
47983;BME280;33751;50.816;-1.214;2023-04-25T07:51:54;101760.56;;;35.10;100.00
47983;BME280;33751;50.816;-1.214;2023-04-25T07:54:20;101760.99;;;35.24;100.00
47983;BME280;33751;50.816;-1.214;2023-04-25T07:56:47;101760.37;;;35.00;100.00
47983;BME280;33751;50.816;-1.214;2023-04-25T07:59:13;101761.48;;;35.42;100.00
47983;BME280;33751;50.816;-1.214;2023-04-25T08:01:40;101766.12;;;35.18;100.00
47983;BME280;33751;50.816;-1.214;2023-04-25T08:04:07;101766.23;;;35.38;100.00
47983;BME280;33751;50.816;-1.214;2023-04-25T08:06:33;101767.88;;;35.15;100.00
47983;BME280;33751;50.816;-1.214;2023-04-25T08:09:00;101770.62;;;35.27;100.00
47983;BME280;33751;50.816;-1.214;2023-04-25T08:11:27;101768.89;;;35.41;100.00
47983;BME280;33751;50.816;-1.214;2023-04-25T08:13:53;101772.92;;;35.64;100.00
47983;BME280;33751;50.816;-1.214;2023-04-25T08:16:21;101772.09;;;35.68;100.00
47983;BME280;33751;50.816;-1.214;2023-04-25T08:18:50;101777.57;;;35.90;100.00
47983;BME280;33751;50.816;-1.214;2023-04-25T08:21:17;101776.97;;;36.33;100.00
47983;BME280;33751;50.816;-1.214;2023-04-25T08:23:44;101781.13;;;36.19;100.00
47983;BME280;33751;50.816;-1.214;2023-04-25T08:26:10;101775.35;;;36.33;100.00
47983;BME280;33751;50.816;-1.214;2023-04-25T08:28:37;101776.83;;;35.96;100.00
47983;BME280;33751;50.816;-1.214;2023-04-25T08:31:05;101774.45;;;36.20;100.00
47983;BME280;33751;50.816;-1.214;2023-04-25T08:33:32;101772.60;;;36.42;100.00
47983;BME280;33751;50.816;-1.214;2023-04-25T08:35:59;101769.46;;;36.56;100.00
47983;BME280;33751;50.816;-1.214;2023-04-25T08:38:25;101765.79;;;36.83;100.00
47983;BME280;33751;50.816;-1.214;2023-04-25T08:40:52;101765.07;;;36.48;100.00
47983;BME280;33751;50.816;-1.214;2023-04-25T08:43:20;101773.12;;;36.89;100.00
47983;BME280;33751;50.816;-1.214;2023-04-25T08:45:47;101770.79;;;37.08;100.00
47983;BME280;33751;50.816;-1.214;2023-04-25T08:48:16;101763.53;;;37.66;100.00
47983;BME280;33751;50.816;-1.214;2023-04-25T08:50:45;101769.29;;;37.33;100.00
47983;BME280;33751;50.816;-1.214;2023-04-25T08:53:16;101766.57;;;37.64;100.00
47983;BME280;33751;50.816;-1.214;2023-04-25T08:55:43;101763.02;;;38.29;100.00
47983;BME280;33751;50.816;-1.214;2023-04-25T08:58:10;101762.87;;;38.27;100.00
47983;BME280;33751;50.816;-1.214;2023-04-25T09:00:38;101754.12;;;38.29;100.00
47983;BME280;33751;50.816;-1.214;2023-04-25T09:03:05;101766.54;;;38.14;100.00
47983;BME280;33751;50.816;-1.214;2023-04-25T09:05:33;101766.94;;;37.92;100.00
47983;BME280;33751;50.816;-1.214;2023-04-25T09:08:00;101770.53;;;38.38;100.00
47983;BME280;33751;50.816;-1.214;2023-04-25T09:10:27;101769.21;;;38.62;100.00
47983;BME280;33751;50.816;-1.214;2023-04-25T09:13:03;101770.01;;;37.16;100.00
47983;BME280;33751;50.816;-1.214;2023-04-25T09:15:31;101769.90;;;37.73;100.00
47983;BME280;33751;50.816;-1.214;2023-04-25T09:17:59;101768.37;;;37.65;100.00
47983;BME280;33751;50.816;-1.214;2023-04-25T09:20:26;101769.45;;;37.26;100.00
47983;BME280;33751;50.816;-1.214;2023-04-25T09:23:09;101777.69;;;36.53;100.00
47983;BME280;33751;50.816;-1.214;2023-04-25T09:25:37;101778.24;;;34.92;100.00
47983;BME280;33751;50.816;-1.214;2023-04-25T09:28:05;101780.27;;;34.21;100.00
47983;BME280;33751;50.816;-1.214;2023-04-25T09:30:35;101778.25;;;33.41;100.00
47983;BME280;33751;50.816;-1.214;2023-04-25T09:33:05;101774.62;;;33.59;100.00
47983;BME280;33751;50.816;-1.214;2023-04-25T09:35:35;101783.25;;;32.89;100.00
47983;BME280;33751;50.816;-1.214;2023-04-25T09:38:07;101780.98;;;32.60;100.00
47983;BME280;33751;50.816;-1.214;2023-04-25T09:40:39;101778.42;;;32.39;100.00
47983;BME280;33751;50.816;-1.214;2023-04-25T09:43:09;101780.72;;;32.13;100.00
47983;BME280;33751;50.816;-1.214;2023-04-25T09:45:41;101781.76;;;31.92;100.00
47983;BME280;33751;50.816;-1.214;2023-04-25T09:48:08;101778.46;;;31.18;100.00
47983;BME280;33751;50.816;-1.214;2023-04-25T09:50:36;101774.45;;;31.15;100.00
47983;BME280;33751;50.816;-1.214;2023-04-25T09:53:04;101772.77;;;30.89;100.00
47983;BME280;33751;50.816;-1.214;2023-04-25T09:55:32;101777.52;;;30.52;100.00
47983;BME280;33751;50.816;-1.214;2023-04-25T09:58:05;101771.17;;;30.19;100.00
47983;BME280;33751;50.816;-1.214;2023-04-25T10:00:32;101772.56;;;29.92;100.00
47983;BME280;33751;50.816;-1.214;2023-04-25T10:03:01;101774.69;;;30.18;100.00
47983;BME280;33751;50.816;-1.214;2023-04-25T10:05:30;101776.44;;;29.51;100.00
47983;BME280;33751;50.816;-1.214;2023-04-25T10:07:58;101775.06;;;29.70;100.00
47983;BME280;33751;50.816;-1.214;2023-04-25T10:10:25;101774.14;;;29.26;100.00
47983;BME280;33751;50.816;-1.214;2023-04-25T10:12:54;101778.37;;;29.31;100.00
47983;BME280;33751;50.816;-1.214;2023-04-25T10:15:22;101778.47;;;29.21;100.00
47983;BME280;33751;50.816;-1.214;2023-04-25T10:17:49;101783.30;;;28.93;100.00
47983;BME280;33751;50.816;-1.214;2023-04-25T10:20:17;101785.67;;;29.13;100.00
47983;BME280;33751;50.816;-1.214;2023-04-25T10:22:45;101783.90;;;28.85;100.00
47983;BME280;33751;50.816;-1.214;2023-04-25T10:25:12;101782.70;;;29.15;100.00
47983;BME280;33751;50.816;-1.214;2023-04-25T10:27:40;101783.71;;;29.13;100.00
47983;BME280;33751;50.816;-1.214;2023-04-25T10:30:08;101790.38;;;29.24;100.00
47983;BME280;33751;50.816;-1.214;2023-04-25T10:32:36;101790.45;;;28.84;100.00
47983;BME280;33751;50.816;-1.214;2023-04-25T10:35:12;101793.90;;;28.94;100.00
47983;BME280;33751;50.816;-1.214;2023-04-25T10:37:56;101792.01;;;29.34;100.00
47983;BME280;33751;50.816;-1.214;2023-04-25T10:40:24;101794.77;;;28.77;100.00
47983;BME280;33751;50.816;-1.214;2023-04-25T10:42:52;101799.56;;;29.03;100.00
47983;BME280;33751;50.816;-1.214;2023-04-25T10:45:20;101798.14;;;28.82;100.00
47983;BME280;33751;50.816;-1.214;2023-04-25T10:47:47;101800.08;;;28.67;100.00
47983;BME280;33751;50.816;-1.214;2023-04-25T10:50:15;101794.74;;;27.99;100.00
47983;BME280;33751;50.816;-1.214;2023-04-25T10:52:42;101792.90;;;28.10;100.00
47983;BME280;33751;50.816;-1.214;2023-04-25T10:55:09;101789.51;;;28.35;100.00
47983;BME280;33751;50.816;-1.214;2023-04-25T10:57:38;101783.32;;;28.30;100.00
47983;BME280;33751;50.816;-1.214;2023-04-25T11:00:08;101778.46;;;28.07;100.00
47983;BME280;33751;50.816;-1.214;2023-04-25T11:02:37;101787.27;;;28.22;100.00
47983;BME280;33751;50.816;-1.214;2023-04-25T11:05:06;101786.82;;;28.21;100.00
47983;BME280;33751;50.816;-1.214;2023-04-25T11:07:38;101783.58;;;27.65;100.00
47983;BME280;33751;50.816;-1.214;2023-04-25T11:10:06;101784.21;;;28.02;100.00
47983;BME280;33751;50.816;-1.214;2023-04-25T11:12:33;101787.51;;;27.92;100.00
47983;BME280;33751;50.816;-1.214;2023-04-25T11:15:01;101791.05;;;27.93;100.00
47983;BME280;33751;50.816;-1.214;2023-04-25T11:17:28;101792.48;;;27.39;100.00
47983;BME280;33751;50.816;-1.214;2023-04-25T11:19:56;101793.72;;;27.53;100.00
47983;BME280;33751;50.816;-1.214;2023-04-25T11:22:23;101794.21;;;27.61;100.00
47983;BME280;33751;50.816;-1.214;2023-04-25T11:24:50;101794.41;;;27.53;100.00
47983;BME280;33751;50.816;-1.214;2023-04-25T11:27:16;101798.91;;;27.72;100.00
47983;BME280;33751;50.816;-1.214;2023-04-25T11:29:43;101798.55;;;27.79;100.00
47983;BME280;33751;50.816;-1.214;2023-04-25T11:32:10;101800.18;;;27.76;100.00
47983;BME280;33751;50.816;-1.214;2023-04-25T11:34:37;101795.84;;;27.90;100.00
47983;BME280;33751;50.816;-1.214;2023-04-25T11:37:03;101789.86;;;27.84;100.00
47983;BME280;33751;50.816;-1.214;2023-04-25T11:39:30;101802.90;;;23.32;100.00
47983;BME280;33751;50.816;-1.214;2023-04-25T11:41:57;101810.01;;;18.97;100.00
47983;BME280;33751;50.816;-1.214;2023-04-25T11:44:25;101814.09;;;17.95;100.00
47983;BME280;33751;50.816;-1.214;2023-04-25T11:46:52;101811.26;;;18.57;100.00
47983;BME280;33751;50.816;-1.214;2023-04-25T11:49:19;101802.51;;;21.09;100.00
47983;BME280;33751;50.816;-1.214;2023-04-25T11:51:47;101801.67;;;21.52;100.00
47983;BME280;33751;50.816;-1.214;2023-04-25T11:54:15;101808.14;;;22.00;100.00
47983;BME280;33751;50.816;-1.214;2023-04-25T11:56:42;101805.50;;;22.36;100.00
47983;BME280;33751;50.816;-1.214;2023-04-25T11:59:10;101802.15;;;23.38;100.00
47983;BME280;33751;50.816;-1.214;2023-04-25T12:01:39;101796.29;;;23.47;100.00
47983;BME280;33751;50.816;-1.214;2023-04-25T12:04:11;101800.80;;;23.43;100.00
47983;BME280;33751;50.816;-1.214;2023-04-25T12:06:38;101798.49;;;23.57;100.00
47983;BME280;33751;50.816;-1.214;2023-04-25T12:09:09;101801.79;;;22.57;100.00
47983;BME280;33751;50.816;-1.214;2023-04-25T12:11:45;101805.87;;;22.46;100.00
47983;BME280;33751;50.816;-1.214;2023-04-25T12:14:20;101799.18;;;23.61;100.00
47983;BME280;33751;50.816;-1.214;2023-04-25T12:16:47;101802.25;;;23.70;100.00
47983;BME280;33751;50.816;-1.214;2023-04-25T12:19:15;101797.26;;;23.21;100.00
47983;BME280;33751;50.816;-1.214;2023-04-25T12:21:43;101808.93;;;23.38;100.00
47983;BME280;33751;50.816;-1.214;2023-04-25T12:24:12;101811.78;;;24.05;100.00
47983;BME280;33751;50.816;-1.214;2023-04-25T12:26:47;101812.32;;;24.18;100.00
47983;BME280;33751;50.816;-1.214;2023-04-25T12:29:17;101815.67;;;23.49;100.00
47983;BME280;33751;50.816;-1.214;2023-04-25T12:31:44;101815.00;;;23.43;100.00